Time;durP1;ratioP1;P1;durP2;ratioP2;P2;SDS_P1;SDS_P2;PMS_P1;PMS_P2;Temp;Humidity;BMP_temperature;BMP_pressure;BME280_temperature;BME280_humidity;BME280_pressure;Samples;Min_cycle;Max_cycle;Signal;HPM_P1;HPM_P2
2022/12/16 00:00:00;;;;;;;34.25;21.48;;;;;;;3.34;81.21;101222.27;1706882;81;20940;-87
2022/12/16 00:02:26;;;;;;;32.35;20.95;;;;;;;3.25;81.12;101223.75;1717556;81;21011;-86
2022/12/16 00:04:53;;;;;;;31.90;21.35;;;;;;;3.16;81.11;101223.48;1719782;81;20889;-88
2022/12/16 00:07:21;;;;;;;31.62;20.48;;;;;;;3.07;81.38;101232.73;1746496;81;20943;-87
2022/12/16 00:09:48;;;;;;;30.37;19.98;;;;;;;3.03;81.85;101233.23;1729345;81;21155;-85
2022/12/16 00:12:15;;;;;;;30.80;20.65;;;;;;;3.03;82.23;101231.09;1738636;81;20987;-87
2022/12/16 00:14:41;;;;;;;31.60;20.40;;;;;;;3.02;82.45;101228.06;1724539;82;21946;-88
2022/12/16 00:17:08;;;;;;;31.93;21.70;;;;;;;3.00;82.29;101234.59;1721244;82;21085;-87
2022/12/16 00:19:34;;;;;;;32.05;21.62;;;;;;;2.97;82.36;101240.27;1725693;81;21000;-84
2022/12/16 00:22:01;;;;;;;31.00;20.00;;;;;;;2.94;82.38;101239.88;1725320;81;21820;-86
2022/12/16 00:24:30;;;;;;;28.62;19.73;;;;;;;2.94;82.23;101246.36;1743161;81;21061;-86
2022/12/16 00:26:56;;;;;;;29.57;19.73;;;;;;;2.89;82.04;101241.68;1736202;81;20864;-89
2022/12/16 00:29:23;;;;;;;28.42;19.85;;;;;;;2.90;82.59;101248.59;1713998;81;20936;-88
2022/12/16 00:31:50;;;;;;;29.80;20.12;;;;;;;2.92;82.72;101244.68;1748045;81;20853;-87
2022/12/16 00:34:16;;;;;;;36.77;21.20;;;;;;;2.93;82.99;101245.92;1732467;81;21185;-88
2022/12/16 00:36:43;;;;;;;31.10;20.27;;;;;;;2.99;82.94;101254.04;1732015;80;20916;-86
2022/12/16 00:39:10;;;;;;;30.85;18.75;;;;;;;3.02;82.63;101251.38;1745279;81;20908;-88
2022/12/16 00:41:37;;;;;;;33.30;20.85;;;;;;;3.01;82.51;101250.98;1741254;80;20947;-87
2022/12/16 00:44:04;;;;;;;28.70;19.60;;;;;;;3.00;82.21;101235.01;1734982;81;20899;-88
2022/12/16 00:46:30;;;;;;;30.02;20.68;;;;;;;2.93;81.96;101231.67;1751014;81;21407;-87
2022/12/16 00:48:57;;;;;;;33.33;19.52;;;;;;;2.87;82.04;101225.34;1744554;81;20994;-88
2022/12/16 00:51:23;;;;;;;30.27;20.00;;;;;;;2.82;82.17;101217.63;1743462;81;21007;-86
2022/12/16 00:53:50;;;;;;;30.82;19.77;;;;;;;2.76;82.46;101221.64;1736783;81;20991;-86
2022/12/16 00:56:17;;;;;;;30.88;20.80;;;;;;;2.75;82.69;101221.66;1743507;81;20995;-87
2022/12/16 00:58:44;;;;;;;28.95;18.50;;;;;;;2.71;82.87;101213.08;1754054;81;21148;-88
2022/12/16 01:01:11;;;;;;;28.92;20.12;;;;;;;2.70;82.94;101206.21;1729145;81;20901;-88
2022/12/16 01:03:40;;;;;;;27.50;17.50;;;;;;;2.65;82.74;101192.05;1737575;81;20940;-87
2022/12/16 01:06:10;;;;;;;31.52;20.82;;;;;;;2.56;82.75;101187.05;1736509;81;20916;-87
2022/12/16 01:08:37;;;;;;;27.35;18.00;;;;;;;2.48;82.83;101183.73;1706769;82;20979;-86
2022/12/16 01:11:04;;;;;;;28.35;19.17;;;;;;;2.42;82.97;101165.70;1720582;82;21094;-86
2022/12/16 01:13:31;;;;;;;31.62;21.15;;;;;;;2.37;82.92;101164.94;1734458;81;21026;-87
2022/12/16 01:16:00;;;;;;;29.50;20.17;;;;;;;2.28;83.18;101164.20;1751034;81;20978;-86
2022/12/16 01:18:29;;;;;;;31.93;22.05;;;;;;;2.22;83.57;101160.87;1725268;81;20925;-86
2022/12/16 01:21:07;;;;;;;43.40;29.00;;;;;;;2.14;83.85;101156.28;1722552;81;21033;-87
2022/12/16 01:23:33;;;;;;;54.27;34.13;;;;;;;2.10;84.04;101158.50;1743097;81;21239;-87
2022/12/16 01:26:00;;;;;;;54.70;35.20;;;;;;;1.99;84.24;101160.81;1742269;81;21034;-87
2022/12/16 01:28:28;;;;;;;52.65;34.20;;;;;;;1.92;84.41;101159.20;1751887;81;21440;-88
2022/12/16 01:31:00;;;;;;;46.05;32.08;;;;;;;1.87;84.53;101164.89;1733338;81;20928;-88
2022/12/16 01:39:54;;;;;;;64.32;42.78;;;;;;;1.76;85.26;101168.08;1660890;81;21180;-86
2022/12/16 01:42:21;;;;;;;76.05;53.28;;;;;;;1.72;85.62;101159.95;1717894;83;21035;-87
2022/12/16 01:44:50;;;;;;;80.00;59.55;;;;;;;1.73;85.83;101169.41;1714334;83;20943;-87
2022/12/16 01:47:21;;;;;;;75.92;55.95;;;;;;;1.73;85.84;101169.41;1721592;83;21022;-87
2022/12/16 01:49:55;;;;;;;76.65;54.33;;;;;;;1.70;85.89;101174.19;1719322;83;21144;-88
2022/12/16 01:52:26;;;;;;;71.37;45.10;;;;;;;1.70;85.92;101185.81;1706270;82;21094;-86
2022/12/16 01:55:00;;;;;;;56.08;36.23;;;;;;;1.78;86.18;101193.03;1710559;81;20864;-86
2022/12/16 01:57:33;;;;;;;41.42;28.10;;;;;;;1.85;86.23;101206.28;1711817;81;20908;-86
2022/12/16 01:59:59;;;;;;;44.42;30.90;;;;;;;1.92;86.57;101221.72;1678198;84;20919;-86
2022/12/16 02:02:26;;;;;;;40.52;26.20;;;;;;;1.98;86.56;101240.59;1679467;83;21250;-85
2022/12/16 02:07:41;;;;;;;52.53;36.68;;;;;;;2.12;85.96;101226.15;1679768;84;21042;-86
2022/12/16 02:10:10;;;;;;;53.28;35.15;;;;;;;2.12;85.71;101227.45;1678874;84;21073;-87
2022/12/16 02:12:58;;;;;;;49.18;32.90;;;;;;;2.11;85.58;101224.42;1673650;84;20940;-87
2022/12/16 02:15:50;;;;;;;49.38;32.60;;;;;;;2.16;85.65;101212.74;1683640;83;21213;-87
2022/12/16 02:18:35;;;;;;;53.28;35.80;;;;;;;2.22;85.38;101199.69;1669113;84;20959;-86
2022/12/16 02:21:32;;;;;;;60.03;37.03;;;;;;;2.19;85.28;101186.36;1680978;83;20994;-87
2022/12/16 02:24:19;;;;;;;59.13;36.55;;;;;;;2.19;85.40;101172.13;1635498;87;20976;-87
2022/12/16 02:27:25;;;;;;;60.95;37.45;;;;;;;2.16;85.29;101172.64;1632992;87;20969;-87
2022/12/16 02:30:25;;;;;;;53.25;34.03;;;;;;;2.11;85.27;101170.09;1666038;85;21263;-87
2022/12/16 02:33:20;;;;;;;50.20;30.57;;;;;;;2.07;85.06;101191.75;1667718;84;20910;-87
2022/12/16 02:36:11;;;;;;;53.30;31.37;;;;;;;1.97;85.22;101193.59;1675898;85;20911;-86
2022/12/16 02:39:14;;;;;;;46.80;29.05;;;;;;;1.92;85.18;101202.33;1666033;85;21511;-86
2022/12/16 02:41:58;;;;;;;48.52;32.20;;;;;;;1.95;85.48;101204.85;1667300;85;21077;-87
2022/12/16 02:44:51;;;;;;;53.45;31.90;;;;;;;1.98;85.55;101216.43;1667431;85;22080;-88
2022/12/16 02:47:18;;;;;;;47.55;28.45;;;;;;;2.00;85.76;101224.61;1667146;85;20908;-88
2022/12/16 02:49:48;;;;;;;34.63;24.10;;;;;;;2.11;86.30;101242.98;1670714;85;21056;-86
2022/12/16 02:52:22;;;;;;;39.15;25.15;;;;;;;2.23;86.08;101251.86;1670543;84;20939;-87
2022/12/16 02:54:53;;;;;;;36.58;25.02;;;;;;;2.30;85.88;101270.30;1670029;84;21481;-88
2022/12/16 02:57:28;;;;;;;45.43;28.55;;;;;;;2.33;85.42;101272.83;1661154;84;21154;-86
2022/12/16 03:00:11;;;;;;;37.40;25.62;;;;;;;2.33;85.16;101271.53;1675493;83;21063;-90
2022/12/16 03:03:15;;;;;;;34.63;22.42;;;;;;;2.38;85.12;101283.10;1681661;83;21116;-88
2022/12/16 03:05:46;;;;;;;36.48;23.12;;;;;;;2.42;85.15;101284.77;1693014;83;21508;-86
2022/12/16 03:08:15;;;;;;;35.83;24.23;;;;;;;2.49;85.33;101292.44;1685276;84;20884;-86
2022/12/16 03:10:46;;;;;;;35.55;23.65;;;;;;;2.57;85.25;101297.92;1685069;84;21086;-87
2022/12/16 03:13:12;;;;;;;41.95;25.82;;;;;;;2.64;84.96;101285.28;1700034;82;20968;-85
2022/12/16 03:15:39;;;;;;;38.58;27.05;;;;;;;2.65;84.29;101289.60;1724152;82;20873;-86
2022/12/16 03:18:07;;;;;;;39.08;26.77;;;;;;;2.60;83.98;101281.91;1715902;81;21077;-86
2022/12/16 03:20:41;;;;;;;42.17;27.22;;;;;;;2.61;83.88;101279.72;1701315;81;20963;-87
2022/12/16 03:23:12;;;;;;;33.67;23.80;;;;;;;2.64;83.82;101280.95;1696838;81;21070;-87
2022/12/16 03:25:41;;;;;;;39.03;24.70;;;;;;;2.68;83.81;101277.89;1711002;81;20870;-86
2022/12/16 03:28:30;;;;;;;38.13;25.48;;;;;;;2.68;83.99;101268.82;1702569;81;20935;-86
2022/12/16 03:31:22;;;;;;;33.10;23.20;;;;;;;2.68;83.89;101264.48;1719886;82;20915;-87
2022/12/16 03:33:57;;;;;;;37.55;25.02;;;;;;;2.63;83.71;101274.08;1727219;81;21085;-89
2022/12/16 03:36:24;;;;;;;53.35;43.50;;;;;;;2.62;83.98;101291.80;1698942;81;21246;-87
2022/12/16 03:38:51;;;;;;;50.35;37.90;;;;;;;2.69;84.24;101305.47;1723034;82;20919;-87
2022/12/16 03:41:19;;;;;;;46.90;34.63;;;;;;;2.73;84.11;101318.80;1709904;81;21346;-87
2022/12/16 03:43:47;;;;;;;37.67;27.15;;;;;;;2.76;83.89;101336.02;1719912;82;20964;-89
2022/12/16 03:46:13;;;;;;;33.45;25.27;;;;;;;2.78;83.66;101329.08;1710498;81;21001;-87
2022/12/16 03:48:49;;;;;;;31.80;21.60;;;;;;;2.78;83.20;101310.53;1706499;82;21142;-88
2022/12/16 03:51:17;;;;;;;33.58;22.52;;;;;;;2.75;83.13;101307.13;1713954;81;20888;-88
2022/12/16 03:53:44;;;;;;;38.10;25.20;;;;;;;2.67;83.18;101324.09;1710019;81;20986;-88
2022/12/16 03:56:11;;;;;;;35.90;24.25;;;;;;;2.63;83.58;101331.05;1700606;82;20844;-88
2022/12/16 03:58:41;;;;;;;38.85;26.70;;;;;;;2.70;83.97;101325.33;1696838;82;20982;-90
2022/12/16 04:01:08;;;;;;;39.65;26.05;;;;;;;2.72;83.67;101312.36;1697945;81;21201;-89
2022/12/16 04:03:36;;;;;;;34.83;24.92;;;;;;;2.73;83.52;101315.36;1700515;81;21488;-87
2022/12/16 04:06:03;;;;;;;37.50;25.17;;;;;;;2.72;83.55;101314.51;1682576;84;20970;-88
2022/12/16 04:08:30;;;;;;;34.48;24.10;;;;;;;2.74;83.78;101302.84;1725892;82;21002;-90
2022/12/16 04:25:11;;;;;;;35.38;24.18;;;;;;;2.81;83.91;101328.59;1708692;82;21053;-87
2022/12/16 04:27:37;;;;;;;39.45;25.92;;;;;;;2.81;83.56;101322.56;1720316;82;21377;-88
2022/12/16 04:30:18;;;;;;;33.60;24.00;;;;;;;2.81;83.48;101321.27;1715376;82;20991;-86
